createdAt,value
2024-01-29T00:01:25.434Z,-0.40
2024-01-29T00:03:52.236Z,-0.40
2024-01-29T00:06:19.030Z,-0.50
2024-01-29T00:08:45.647Z,-0.50
2024-01-29T00:11:12.358Z,-0.50
2024-01-29T00:13:39.093Z,-0.50
2024-01-29T00:16:06.184Z,-0.50
2024-01-29T00:18:32.905Z,-0.50
2024-01-29T00:20:59.587Z,-0.50
2024-01-29T00:23:26.173Z,-0.50
2024-01-29T00:25:52.832Z,-0.60
2024-01-29T00:28:19.374Z,-0.60
2024-01-29T00:30:46.029Z,-0.60
2024-01-29T00:33:12.846Z,-0.60
2024-01-29T00:35:39.482Z,-0.60
2024-01-29T00:38:06.383Z,-0.60
2024-01-29T00:40:34.350Z,-0.70
2024-01-29T00:43:01.577Z,-0.80
2024-01-29T00:45:28.467Z,-0.80
2024-01-29T00:47:55.208Z,-0.80
2024-01-29T00:50:21.925Z,-0.70
2024-01-29T00:52:48.484Z,-0.70
2024-01-29T00:55:15.079Z,-0.70
2024-01-29T00:57:41.744Z,-0.80
2024-01-29T01:00:09.663Z,-0.70
2024-01-29T01:02:36.371Z,-0.80
2024-01-29T01:05:03.142Z,-0.80
2024-01-29T01:07:29.998Z,-0.90
2024-01-29T01:09:56.578Z,-0.80
2024-01-29T01:12:23.569Z,-0.80
2024-01-29T01:14:50.219Z,-0.80
2024-01-29T01:17:16.784Z,-0.80
2024-01-29T01:19:43.670Z,-0.80
2024-01-29T01:22:11.056Z,-0.80
2024-01-29T01:24:37.689Z,-0.80
2024-01-29T01:27:04.469Z,-0.80
2024-01-29T01:29:31.003Z,-0.80
2024-01-29T01:31:57.624Z,-0.80
2024-01-29T01:34:24.355Z,-0.90
2024-01-29T01:36:51.045Z,-0.90
2024-01-29T01:39:17.640Z,-0.90
2024-01-29T01:41:48.439Z,-1.00
2024-01-29T01:44:15.013Z,-1.00
2024-01-29T01:46:41.648Z,-1.10
2024-01-29T01:49:08.389Z,-1.10
2024-01-29T01:51:35.391Z,-1.10
2024-01-29T01:54:03.289Z,-1.20
2024-01-29T01:56:30.179Z,-1.10
2024-01-29T01:58:57.878Z,-1.20
2024-01-29T02:01:24.665Z,-1.20
2024-01-29T02:03:51.492Z,-1.10
2024-01-29T02:06:18.156Z,-1.20
2024-01-29T02:08:44.996Z,-1.10
2024-01-29T02:11:11.555Z,-1.20
2024-01-29T02:13:38.141Z,-1.10
2024-01-29T02:16:04.970Z,-1.10
2024-01-29T02:18:31.869Z,-1.10
2024-01-29T02:20:58.588Z,-1.20
2024-01-29T02:23:25.522Z,-1.20
2024-01-29T02:25:52.064Z,-1.10
2024-01-29T02:28:18.783Z,-1.10
2024-01-29T02:30:45.562Z,-1.20
2024-01-29T02:33:12.186Z,-1.10
2024-01-29T02:35:38.807Z,-1.20
2024-01-29T02:38:05.326Z,-1.10
2024-01-29T02:40:31.896Z,-1.10
2024-01-29T02:42:58.499Z,-1.10
2024-01-29T02:45:25.100Z,-1.10
2024-01-29T02:47:51.888Z,-1.10
2024-01-29T02:50:18.453Z,-1.10
2024-01-29T02:52:45.261Z,-1.20
2024-01-29T02:55:11.918Z,-1.20
2024-01-29T02:57:38.624Z,-1.20
2024-01-29T03:00:06.027Z,-1.20
2024-01-29T03:02:32.603Z,-1.20
2024-01-29T03:04:59.304Z,-1.30
2024-01-29T03:07:25.990Z,-1.20
2024-01-29T03:09:52.644Z,-1.30
2024-01-29T03:12:19.238Z,-1.30
2024-01-29T03:14:45.871Z,-1.20
2024-01-29T03:17:12.441Z,-1.30
2024-01-29T03:19:39.932Z,-1.30
2024-01-29T03:22:06.808Z,-1.30
2024-01-29T03:24:33.491Z,-1.30
2024-01-29T03:27:00.054Z,-1.30
2024-01-29T03:29:26.776Z,-1.40
2024-01-29T03:31:53.396Z,-1.40
2024-01-29T03:34:20.107Z,-1.30
2024-01-29T03:36:46.901Z,-1.40
2024-01-29T03:39:13.493Z,-1.40
2024-01-29T03:41:40.103Z,-1.40
2024-01-29T03:44:06.671Z,-1.30
2024-01-29T03:46:33.263Z,-1.40
2024-01-29T03:49:00.118Z,-1.40
2024-01-29T03:51:26.881Z,-1.50
2024-01-29T03:53:53.449Z,-1.40
2024-01-29T03:56:19.976Z,-1.40
2024-01-29T03:58:47.308Z,-1.40
2024-01-29T04:01:13.941Z,-1.40
2024-01-29T04:03:43.308Z,-1.40
2024-01-29T04:06:09.991Z,-1.40
2024-01-29T04:08:36.539Z,-1.40
2024-01-29T04:11:03.130Z,-1.40
2024-01-29T04:13:29.711Z,-1.40
2024-01-29T04:15:56.473Z,-1.40
2024-01-29T04:18:24.079Z,-1.40
2024-01-29T04:20:50.794Z,-1.40
2024-01-29T04:23:17.346Z,-1.50
2024-01-29T04:25:43.977Z,-1.50
2024-01-29T04:28:10.562Z,-1.50
2024-01-29T04:30:37.435Z,-1.50
2024-01-29T04:33:04.110Z,-1.50
2024-01-29T04:35:30.727Z,-1.60
2024-01-29T04:37:57.285Z,-1.50
2024-01-29T04:40:24.183Z,-1.50
2024-01-29T04:42:50.976Z,-1.50
2024-01-29T04:45:17.805Z,-1.50
2024-01-29T04:47:44.427Z,-1.40
2024-01-29T04:50:11.127Z,-1.50
2024-01-29T04:52:37.778Z,-1.50
2024-01-29T04:55:05.968Z,-1.50
2024-01-29T04:57:32.759Z,-1.50
2024-01-29T04:59:59.440Z,-1.50
2024-01-29T05:02:26.881Z,-1.50
2024-01-29T05:04:53.605Z,-1.50
2024-01-29T05:07:20.311Z,-1.40
2024-01-29T05:09:46.962Z,-1.40
2024-01-29T05:12:13.529Z,-1.40
2024-01-29T05:14:40.252Z,-1.40
2024-01-29T05:17:06.976Z,-1.50
2024-01-29T05:19:33.672Z,-1.50
2024-01-29T05:22:02.920Z,-1.40
2024-01-29T05:24:29.701Z,-1.40
2024-01-29T05:26:56.262Z,-1.40
2024-01-29T05:29:23.933Z,-1.40
2024-01-29T05:31:50.491Z,-1.40
2024-01-29T05:34:17.390Z,-1.50
2024-01-29T05:36:44.220Z,-1.50
2024-01-29T05:39:10.830Z,-1.60
2024-01-29T05:41:37.410Z,-1.60
2024-01-29T05:46:54.347Z,-1.70
2024-01-29T05:49:22.352Z,-1.60
2024-01-29T05:51:49.269Z,-1.60
2024-01-29T05:54:15.847Z,-1.60
2024-01-29T05:56:43.402Z,-1.60
2024-01-29T05:59:09.984Z,-1.60
2024-01-29T06:01:36.659Z,-1.60
2024-01-29T06:04:03.597Z,-1.60
2024-01-29T06:06:30.386Z,-1.60
2024-01-29T06:08:57.139Z,-1.50
2024-01-29T06:11:24.280Z,-1.50
2024-01-29T06:13:50.829Z,-1.50
2024-01-29T06:16:20.424Z,-1.50
2024-01-29T06:18:47.125Z,-1.50
2024-01-29T06:21:13.767Z,-1.50
2024-01-29T06:23:40.365Z,-1.50
2024-01-29T06:26:07.526Z,-1.50
2024-01-29T06:28:34.057Z,-1.50
2024-01-29T06:31:01.083Z,-1.50
2024-01-29T06:33:27.957Z,-1.30
2024-01-29T06:35:55.026Z,-1.50
2024-01-29T06:38:21.586Z,-1.50
2024-01-29T06:40:48.299Z,-1.60
2024-01-29T06:43:15.152Z,-1.60
2024-01-29T06:45:41.779Z,-1.60
2024-01-29T06:48:09.641Z,-1.60
2024-01-29T06:50:36.839Z,-1.60
2024-01-29T06:55:54.397Z,-1.50
2024-01-29T06:58:21.083Z,-1.50
2024-01-29T07:00:47.808Z,-1.60
2024-01-29T07:03:16.672Z,-1.60
2024-01-29T07:05:43.281Z,-1.60
2024-01-29T07:08:09.836Z,-1.50
2024-01-29T07:10:36.389Z,-1.60
2024-01-29T07:13:03.057Z,-1.50
2024-01-29T07:15:30.057Z,-1.50
2024-01-29T07:17:56.660Z,-1.50
2024-01-29T07:20:24.187Z,-1.50
2024-01-29T07:22:52.202Z,-1.50
2024-01-29T07:25:18.845Z,-1.40
2024-01-29T07:27:45.886Z,-1.40
2024-01-29T07:30:12.927Z,-1.40
2024-01-29T07:32:39.811Z,-1.40
2024-01-29T07:35:07.632Z,-1.40
2024-01-29T07:37:34.577Z,-1.40
2024-01-29T07:40:01.402Z,-1.40
2024-01-29T07:42:28.087Z,-1.30
2024-01-29T07:44:54.883Z,-1.30
2024-01-29T07:47:21.465Z,-1.30
2024-01-29T07:49:48.181Z,-1.20
2024-01-29T07:52:14.852Z,-1.20
2024-01-29T07:54:41.646Z,-1.20
2024-01-29T07:57:08.229Z,-1.10
2024-01-29T07:59:34.772Z,-1.10
2024-01-29T08:02:01.742Z,-1.10
2024-01-29T08:04:28.614Z,-1.00
2024-01-29T08:06:55.282Z,-0.90
2024-01-29T08:09:21.947Z,-0.90
2024-01-29T08:11:48.493Z,-0.80
2024-01-29T08:14:15.048Z,-0.80
2024-01-29T08:16:41.645Z,-0.80
2024-01-29T08:19:08.369Z,-0.70
2024-01-29T08:21:35.070Z,-0.60
2024-01-29T08:24:03.514Z,-0.50
2024-01-29T08:26:30.356Z,-0.40
2024-01-29T08:28:57.112Z,-0.40
2024-01-29T08:31:25.020Z,-0.30
2024-01-29T08:33:51.843Z,-0.20
2024-01-29T08:36:21.470Z,-0.10
2024-01-29T08:38:48.273Z,0.00
2024-01-29T08:41:15.470Z,0.10
2024-01-29T08:43:42.302Z,0.10
2024-01-29T08:46:09.096Z,0.20
2024-01-29T08:48:35.726Z,0.30
2024-01-29T08:51:02.318Z,0.40
2024-01-29T08:53:28.865Z,0.40
2024-01-29T08:55:55.487Z,0.50
2024-01-29T08:58:24.558Z,0.60
2024-01-29T09:00:55.479Z,0.70
2024-01-29T09:03:22.487Z,0.80
2024-01-29T09:05:49.288Z,0.90
2024-01-29T09:08:19.291Z,1.00
2024-01-29T09:10:48.517Z,1.20
2024-01-29T09:13:15.933Z,1.30
2024-01-29T09:15:42.650Z,1.40
2024-01-29T09:18:09.250Z,1.50
2024-01-29T09:20:35.842Z,1.60
2024-01-29T09:23:02.409Z,1.70
2024-01-29T09:25:29.068Z,1.90
2024-01-29T09:27:55.770Z,2.00
2024-01-29T09:30:22.397Z,2.20
2024-01-29T09:32:49.197Z,2.30
2024-01-29T09:35:15.947Z,2.40
2024-01-29T09:37:42.895Z,2.60
2024-01-29T09:40:12.245Z,2.80
2024-01-29T09:42:41.162Z,2.90
2024-01-29T09:45:09.255Z,3.10
2024-01-29T09:47:36.586Z,3.20
2024-01-29T09:50:03.370Z,3.30
2024-01-29T09:52:30.570Z,3.40
2024-01-29T09:54:57.640Z,3.50
2024-01-29T09:57:24.225Z,3.60
2024-01-29T09:59:51.445Z,3.70
2024-01-29T10:02:19.460Z,3.80
2024-01-29T10:04:46.208Z,4.00
2024-01-29T10:07:13.091Z,4.20
2024-01-29T10:09:39.790Z,4.40
2024-01-29T10:12:06.588Z,4.60
2024-01-29T10:14:33.299Z,4.80
2024-01-29T10:16:59.832Z,5.00
2024-01-29T10:19:36.412Z,5.10
2024-01-29T10:22:03.124Z,5.30
2024-01-29T10:24:32.426Z,5.40
2024-01-29T10:27:05.986Z,5.40
2024-01-29T10:29:32.573Z,5.50
2024-01-29T10:32:00.282Z,5.50
2024-01-29T10:34:27.186Z,5.60
2024-01-29T10:36:54.357Z,5.70
2024-01-29T10:39:21.689Z,5.80
2024-01-29T10:41:50.246Z,6.10
2024-01-29T10:44:17.570Z,6.30
2024-01-29T10:46:47.401Z,6.40
2024-01-29T10:49:14.250Z,6.50
2024-01-29T10:51:41.967Z,6.70
2024-01-29T10:54:11.201Z,6.80
2024-01-29T10:56:38.073Z,6.80
2024-01-29T10:59:05.543Z,6.90
2024-01-29T11:01:33.240Z,7.00
2024-01-29T11:04:01.591Z,7.10
2024-01-29T11:06:34.912Z,7.20
2024-01-29T11:09:04.782Z,7.40
2024-01-29T11:11:31.468Z,7.50
2024-01-29T11:13:58.200Z,7.50
2024-01-29T11:16:25.706Z,7.60
2024-01-29T11:18:52.587Z,7.70
2024-01-29T11:21:24.020Z,7.80
2024-01-29T11:23:53.551Z,7.80
2024-01-29T11:26:21.176Z,8.00
2024-01-29T11:28:55.109Z,8.10
2024-01-29T11:31:21.780Z,8.20
2024-01-29T11:33:48.489Z,8.30
2024-01-29T11:36:17.437Z,8.30
2024-01-29T11:38:44.200Z,8.40
2024-01-29T11:41:10.795Z,8.40
2024-01-29T11:43:37.399Z,8.40
2024-01-29T11:46:06.280Z,8.40
2024-01-29T11:48:33.110Z,8.40
2024-01-29T11:50:59.754Z,8.40
2024-01-29T11:53:27.270Z,8.50
2024-01-29T11:55:54.712Z,8.60
2024-01-29T11:58:22.307Z,8.60
2024-01-29T12:00:50.916Z,8.80
2024-01-29T12:03:27.100Z,8.80
2024-01-29T12:05:54.100Z,9.00
2024-01-29T12:08:22.204Z,8.90
2024-01-29T12:10:49.347Z,8.90
2024-01-29T12:13:16.937Z,8.90
2024-01-29T12:15:44.173Z,8.90
2024-01-29T12:18:20.922Z,8.90
2024-01-29T12:20:50.621Z,8.90
2024-01-29T12:23:18.360Z,9.10
2024-01-29T12:25:46.758Z,9.10
2024-01-29T12:28:17.532Z,9.20
2024-01-29T12:30:52.382Z,9.30
2024-01-29T12:33:19.833Z,9.30
2024-01-29T12:35:46.566Z,9.30
2024-01-29T12:38:13.748Z,9.30
2024-01-29T12:40:41.803Z,9.30
2024-01-29T12:43:14.760Z,9.30
2024-01-29T12:45:45.432Z,9.30
2024-01-29T12:48:13.402Z,9.30
2024-01-29T12:50:43.709Z,9.30
2024-01-29T12:53:11.399Z,9.30
2024-01-29T12:55:38.303Z,9.40
2024-01-29T12:58:05.258Z,9.40
2024-01-29T13:00:32.298Z,9.40
2024-01-29T13:03:00.535Z,9.40
2024-01-29T13:05:28.815Z,9.40
2024-01-29T13:07:55.511Z,9.50
2024-01-29T13:10:26.895Z,9.50
2024-01-29T13:12:53.824Z,9.60
2024-01-29T13:15:20.454Z,9.60
2024-01-29T13:17:47.121Z,9.60
2024-01-29T13:20:13.744Z,9.70
2024-01-29T13:22:40.371Z,9.80
2024-01-29T13:25:07.708Z,9.80
2024-01-29T13:27:34.684Z,9.80
2024-01-29T13:30:01.497Z,9.80
2024-01-29T13:32:28.175Z,9.90
2024-01-29T13:34:54.859Z,9.80
2024-01-29T13:37:21.429Z,9.70
2024-01-29T13:39:48.011Z,9.70
2024-01-29T13:42:14.613Z,9.70
2024-01-29T13:44:41.175Z,9.60
2024-01-29T13:47:07.831Z,9.60
2024-01-29T13:49:34.787Z,9.70
2024-01-29T13:52:03.278Z,9.70
2024-01-29T13:54:29.980Z,9.70
2024-01-29T13:56:56.647Z,9.80
2024-01-29T13:59:23.400Z,9.90
2024-01-29T14:01:50.201Z,9.90
2024-01-29T14:04:17.058Z,9.90
2024-01-29T14:06:44.175Z,9.90
2024-01-29T14:09:12.598Z,9.90
2024-01-29T14:11:39.391Z,9.90
2024-01-29T14:14:06.045Z,9.90
2024-01-29T14:16:32.754Z,9.80
2024-01-29T14:18:59.553Z,9.80
2024-01-29T14:21:26.245Z,9.80
2024-01-29T14:23:52.898Z,9.70
2024-01-29T14:26:19.595Z,9.60
2024-01-29T14:28:46.129Z,9.50
2024-01-29T14:31:13.628Z,9.40
2024-01-29T14:33:42.009Z,9.30
2024-01-29T14:36:08.702Z,9.20
2024-01-29T14:38:35.279Z,9.10
2024-01-29T14:41:01.924Z,8.90
2024-01-29T14:43:28.980Z,8.80
2024-01-29T14:45:55.574Z,8.80
2024-01-29T14:48:22.208Z,8.70
2024-01-29T14:50:48.969Z,8.60
2024-01-29T14:53:16.147Z,8.60
2024-01-29T14:55:43.384Z,8.50
2024-01-29T14:58:10.030Z,8.40
2024-01-29T15:00:36.774Z,8.40
2024-01-29T15:03:03.708Z,8.40
2024-01-29T15:05:30.577Z,8.40
2024-01-29T15:07:57.418Z,8.30
2024-01-29T15:10:24.779Z,8.20
2024-01-29T15:12:51.415Z,8.20
2024-01-29T15:15:18.084Z,8.10
2024-01-29T15:17:45.757Z,8.00
2024-01-29T15:20:12.609Z,7.90
2024-01-29T15:22:39.307Z,7.90
2024-01-29T15:25:06.791Z,7.70
2024-01-29T15:27:33.508Z,7.60
2024-01-29T15:30:00.190Z,7.30
2024-01-29T15:32:26.961Z,7.10
2024-01-29T15:34:53.829Z,6.90
2024-01-29T15:37:20.749Z,6.80
2024-01-29T15:39:47.402Z,6.60
2024-01-29T15:42:17.561Z,6.50
2024-01-29T15:44:44.675Z,6.30
2024-01-29T15:47:11.887Z,6.20
2024-01-29T15:49:41.091Z,5.90
2024-01-29T15:52:08.326Z,5.80
2024-01-29T15:54:36.628Z,5.70
2024-01-29T15:57:07.147Z,5.50
2024-01-29T16:03:02.409Z,5.30
2024-01-29T16:05:29.241Z,5.10
2024-01-29T16:07:56.058Z,5.00
2024-01-29T16:10:22.774Z,4.90
2024-01-29T16:12:49.363Z,4.80
2024-01-29T16:15:17.152Z,4.70
2024-01-29T16:17:43.879Z,4.70
2024-01-29T16:20:12.247Z,4.60
2024-01-29T16:22:38.861Z,4.50
2024-01-29T16:25:05.521Z,4.40
2024-01-29T16:27:32.228Z,4.40
2024-01-29T16:29:58.864Z,4.30
2024-01-29T16:32:25.463Z,4.20
2024-01-29T16:34:52.094Z,4.10
2024-01-29T16:37:18.714Z,4.10
2024-01-29T16:39:45.410Z,4.00
2024-01-29T16:42:12.135Z,3.90
2024-01-29T16:44:38.702Z,4.00
2024-01-29T16:47:05.281Z,3.90
2024-01-29T16:49:32.038Z,3.80
2024-01-29T16:51:58.643Z,3.70
2024-01-29T16:54:25.325Z,3.70
2024-01-29T16:56:51.952Z,3.60
2024-01-29T16:59:18.583Z,3.60
2024-01-29T17:01:47.174Z,3.50
2024-01-29T17:04:14.127Z,3.40
2024-01-29T17:06:40.866Z,3.40
2024-01-29T17:09:11.634Z,3.40
2024-01-29T17:11:38.359Z,3.30
2024-01-29T17:14:05.066Z,3.30
2024-01-29T17:16:31.731Z,3.30
2024-01-29T17:18:58.481Z,3.20
2024-01-29T17:21:25.246Z,3.20
2024-01-29T17:23:51.860Z,3.10
2024-01-29T17:26:18.412Z,3.10
2024-01-29T17:28:45.348Z,3.00
2024-01-29T17:31:12.540Z,3.00
2024-01-29T17:33:39.290Z,2.90
2024-01-29T17:36:06.155Z,2.90
2024-01-29T17:38:32.720Z,2.80
2024-01-29T17:40:59.317Z,2.70
2024-01-29T17:43:26.087Z,2.70
2024-01-29T17:45:52.875Z,2.60
2024-01-29T17:48:19.568Z,2.60
2024-01-29T17:50:46.170Z,2.60
2024-01-29T17:53:12.778Z,2.50
2024-01-29T17:55:39.412Z,2.60
2024-01-29T17:58:06.082Z,2.50
2024-01-29T18:00:32.767Z,2.50
2024-01-29T18:02:59.442Z,2.50
2024-01-29T18:05:26.129Z,2.50
2024-01-29T18:07:52.928Z,2.40
2024-01-29T18:10:19.749Z,2.50
2024-01-29T18:12:46.313Z,2.40
2024-01-29T18:15:13.076Z,2.40
2024-01-29T18:17:39.730Z,2.40
2024-01-29T18:20:06.811Z,2.40
2024-01-29T18:22:33.426Z,2.30
2024-01-29T18:25:00.095Z,2.30
2024-01-29T18:27:26.808Z,2.30
2024-01-29T18:29:53.360Z,2.30
2024-01-29T18:32:20.115Z,2.20
2024-01-29T18:34:46.851Z,2.20
2024-01-29T18:37:13.600Z,2.20
2024-01-29T18:39:40.354Z,2.20
2024-01-29T18:42:07.331Z,2.10
2024-01-29T18:44:34.021Z,2.10
2024-01-29T18:47:00.657Z,2.20
2024-01-29T18:49:27.971Z,2.20
2024-01-29T18:52:01.761Z,2.20
2024-01-29T18:54:28.356Z,2.10
2024-01-29T18:56:54.909Z,2.00
2024-01-29T18:59:21.655Z,2.00
2024-01-29T19:01:48.443Z,1.90
2024-01-29T19:04:15.462Z,1.90
2024-01-29T19:06:42.726Z,1.90
2024-01-29T19:09:11.053Z,1.80
2024-01-29T19:11:40.996Z,1.80
2024-01-29T19:14:07.604Z,1.80
2024-01-29T19:16:34.188Z,1.80
2024-01-29T19:19:01.260Z,1.80
2024-01-29T19:21:27.876Z,1.70
2024-01-29T19:23:54.408Z,1.70
2024-01-29T19:26:21.023Z,1.80
2024-01-29T19:28:47.576Z,1.80
2024-01-29T19:31:15.957Z,1.70
2024-01-29T19:33:43.075Z,1.70
2024-01-29T19:36:09.844Z,1.70
2024-01-29T19:38:36.513Z,1.70
2024-01-29T19:41:03.839Z,1.60
2024-01-29T19:43:30.696Z,1.60
2024-01-29T19:45:57.492Z,1.60
2024-01-29T19:48:24.652Z,1.60
2024-01-29T19:50:51.317Z,1.50
2024-01-29T19:53:17.848Z,1.60
2024-01-29T19:55:44.380Z,1.50
2024-01-29T19:58:11.278Z,1.50
2024-01-29T20:00:38.055Z,1.50
2024-01-29T20:03:04.984Z,1.50
2024-01-29T20:05:31.643Z,1.50
2024-01-29T20:07:58.257Z,1.50
2024-01-29T20:10:25.067Z,1.50
2024-01-29T20:12:51.859Z,1.50
2024-01-29T20:15:19.567Z,1.50
2024-01-29T20:17:46.218Z,1.50
2024-01-29T20:20:13.066Z,1.50
2024-01-29T20:22:39.830Z,1.50
2024-01-29T20:25:06.580Z,1.50
2024-01-29T20:27:33.188Z,1.50
2024-01-29T20:29:59.766Z,1.40
2024-01-29T20:32:26.468Z,1.50
2024-01-29T20:34:53.428Z,1.40
2024-01-29T20:37:20.232Z,1.40
2024-01-29T20:39:46.832Z,1.40
2024-01-29T20:42:13.720Z,1.30
2024-01-29T20:44:40.415Z,1.40
2024-01-29T20:47:06.977Z,1.40
2024-01-29T20:49:33.779Z,1.40
2024-01-29T20:52:01.643Z,1.30
2024-01-29T20:54:28.381Z,1.30
2024-01-29T20:57:01.048Z,1.30
2024-01-29T20:59:28.176Z,1.20
2024-01-29T21:01:54.844Z,1.40
2024-01-29T21:04:22.431Z,1.30
2024-01-29T21:06:49.452Z,1.30
2024-01-29T21:09:16.148Z,1.40
2024-01-29T21:11:43.162Z,1.40
2024-01-29T21:14:11.123Z,1.40
2024-01-29T21:16:37.935Z,1.40
2024-01-29T21:19:04.642Z,1.40
2024-01-29T21:21:31.312Z,1.40
2024-01-29T21:23:57.876Z,1.40
2024-01-29T21:26:25.818Z,1.40
2024-01-29T21:28:52.542Z,1.40
2024-01-29T21:31:19.333Z,1.40
2024-01-29T21:33:46.015Z,1.40
2024-01-29T21:36:13.129Z,1.30
2024-01-29T21:38:39.864Z,1.40
2024-01-29T21:41:06.818Z,1.50
2024-01-29T21:43:33.782Z,1.50
2024-01-29T21:46:00.501Z,1.40
2024-01-29T21:48:28.297Z,1.40
2024-01-29T21:50:55.060Z,1.30
2024-01-29T21:53:21.638Z,1.30
2024-01-29T21:55:48.496Z,1.30
2024-01-29T21:58:15.173Z,1.40
2024-01-29T22:00:41.840Z,1.30
2024-01-29T22:03:08.626Z,1.20
2024-01-29T22:05:35.217Z,1.20
2024-01-29T22:08:04.430Z,1.20
2024-01-29T22:10:31.212Z,1.20
2024-01-29T22:12:57.871Z,1.20
2024-01-29T22:15:24.941Z,1.20
2024-01-29T22:17:51.570Z,1.30
2024-01-29T22:20:18.322Z,1.20
2024-01-29T22:22:45.006Z,1.20
2024-01-29T22:25:11.908Z,1.20
2024-01-29T22:27:38.540Z,1.20
2024-01-29T22:30:05.506Z,1.20
2024-01-29T22:32:32.029Z,1.20
2024-01-29T22:34:58.762Z,1.20
2024-01-29T22:37:25.625Z,1.10
2024-01-29T22:39:52.354Z,1.10
2024-01-29T22:42:19.003Z,1.10
2024-01-29T22:44:45.560Z,1.10
2024-01-29T22:47:12.101Z,1.10
2024-01-29T22:49:38.786Z,1.00
2024-01-29T22:52:05.647Z,1.00
2024-01-29T22:54:32.259Z,1.00
2024-01-29T22:56:58.965Z,1.00
2024-01-29T22:59:25.995Z,1.00
2024-01-29T23:01:52.604Z,1.00
2024-01-29T23:04:19.448Z,0.90
2024-01-29T23:06:46.764Z,0.90
2024-01-29T23:09:14.123Z,0.90
2024-01-29T23:11:40.732Z,0.90
2024-01-29T23:14:07.283Z,0.90
2024-01-29T23:16:33.897Z,1.00
2024-01-29T23:19:00.594Z,0.90
2024-01-29T23:21:27.338Z,0.90
2024-01-29T23:23:53.983Z,0.80
2024-01-29T23:26:20.534Z,0.80
2024-01-29T23:28:47.070Z,0.70
2024-01-29T23:31:13.841Z,0.70
2024-01-29T23:33:41.699Z,0.70
2024-01-29T23:36:08.512Z,0.70
2024-01-29T23:38:36.536Z,0.70
2024-01-29T23:41:03.133Z,0.70
2024-01-29T23:43:29.733Z,0.60
2024-01-29T23:45:56.377Z,0.70
2024-01-29T23:48:23.050Z,0.60
2024-01-29T23:50:49.640Z,0.60
2024-01-29T23:53:16.186Z,0.60
2024-01-29T23:55:42.726Z,0.60
2024-01-29T23:58:09.297Z,0.60
